Time;durP1;ratioP1;P1;durP2;ratioP2;P2;SDS_P1;SDS_P2;PMS_P1;PMS_P2;Temp;Humidity;BMP_temperature;BMP_pressure;BME280_temperature;BME280_humidity;BME280_pressure;Samples;Min_cycle;Max_cycle;Signal;HPM_P1;HPM_P2
2021/09/19 00:01:24;;;;;;;;;12.50;11.00;;;;;22.34;47.51;100640.94;5000998;28;45399;-52
2021/09/19 00:03:50;;;;;;;;;9.00;9.00;;;;;22.33;47.78;100641.06;5000969;28;45335;-46
2021/09/19 00:06:15;;;;;;;;;9.25;7.50;;;;;22.31;47.45;100640.28;5001137;28;45400;-48
2021/09/19 00:08:41;;;;;;;;;9.50;8.75;;;;;22.22;47.74;100626.53;5000667;28;45341;-48
2021/09/19 00:11:06;;;;;;;;;9.50;8.25;;;;;22.29;47.64;100640.38;5012693;28;45164;-51
2021/09/19 00:13:32;;;;;;;;;8.00;8.00;;;;;22.27;48.10;100631.59;5014261;28;45530;-49
2021/09/19 00:15:57;;;;;;;;;10.75;9.50;;;;;22.26;47.72;100626.34;5000564;28;45337;-51
2021/09/19 00:18:22;;;;;;;;;8.00;8.00;;;;;22.24;48.10;100623.78;4999966;28;45313;-51
2021/09/19 00:20:48;;;;;;;;;9.75;9.75;;;;;22.22;48.05;100626.53;5000905;28;45325;-51
2021/09/19 00:23:13;;;;;;;;;8.00;7.25;;;;;22.21;47.67;100630.19;5012617;28;45265;-48
2021/09/19 00:25:39;;;;;;;;;14.25;11.75;;;;;22.19;47.94;100626.75;5016401;28;45485;-48
2021/09/19 00:28:05;;;;;;;;;8.25;8.25;;;;;22.18;47.71;100617.00;5000936;28;45216;-49
2021/09/19 00:30:32;;;;;;;;;7.50;6.50;;;;;22.16;48.16;100626.06;5000485;28;46499;-47
2021/09/19 00:32:58;;;;;;;;;9.75;8.75;;;;;22.15;47.97;100616.31;5000453;28;45269;-50
2021/09/19 00:35:24;;;;;;;;;10.75;9.75;;;;;22.11;48.07;100610.31;5000505;28;45297;-50
2021/09/19 00:37:49;;;;;;;;;9.50;9.50;;;;;22.13;48.05;100610.25;5000015;28;45333;-50
2021/09/19 00:40:15;;;;;;;;;10.25;8.00;;;;;22.12;47.90;100614.72;5006678;28;45500;-49
2021/09/19 00:42:40;;;;;;;;;11.00;8.00;;;;;22.11;47.99;100609.47;5000205;28;45455;-49
2021/09/19 00:45:25;;;;;;;;;10.00;8.50;;;;;22.10;48.11;100613.09;5009617;28;45310;-50
2021/09/19 00:47:51;;;;;;;;;10.25;8.50;;;;;22.08;48.09;100610.53;5000465;28;46388;-50
2021/09/19 00:50:20;;;;;;;;;11.00;10.50;;;;;22.06;48.18;100604.41;5000095;28;45408;-50
2021/09/19 00:52:46;;;;;;;;;8.00;8.00;;;;;22.05;48.51;100608.91;5015322;28;45156;-48
2021/09/19 00:55:14;;;;;;;;;11.50;9.25;;;;;22.03;48.10;100605.47;5024198;28;45277;-49
2021/09/19 00:57:43;;;;;;;;;9.50;9.50;;;;;22.04;48.16;100607.19;5011637;28;47331;-50
2021/09/19 01:00:11;;;;;;;;;12.00;9.75;;;;;22.02;48.35;100603.75;5015034;28;45290;-50
2021/09/19 01:02:37;;;;;;;;;10.00;10.00;;;;;22.02;48.19;100609.09;5008066;28;45285;-50
2021/09/19 01:05:04;;;;;;;;;10.25;9.25;;;;;22.01;48.19;100607.41;5017167;28;45236;-50
2021/09/19 01:07:30;;;;;;;;;10.25;10.00;;;;;22.02;48.24;100609.09;5017523;28;45570;-47
2021/09/19 01:09:56;;;;;;;;;11.50;10.00;;;;;22.00;48.54;100603.00;5020732;28;45371;-46
2021/09/19 01:12:25;;;;;;;;;11.50;11.50;;;;;22.01;47.99;100603.84;5008161;28;45394;-50
2021/09/19 01:14:51;;;;;;;;;7.75;7.25;;;;;22.00;48.54;100608.34;5016311;28;45845;-48
2021/09/19 01:17:19;;;;;;;;;10.00;10.00;;;;;21.98;48.22;100598.72;4999877;28;46367;-48
2021/09/19 01:19:46;;;;;;;;;9.50;9.50;;;;;21.97;48.49;100600.50;4999676;28;45371;-50
2021/09/19 01:22:11;;;;;;;;;10.00;10.00;;;;;21.96;48.36;100600.59;5000104;28;45389;-48
2021/09/19 01:24:37;;;;;;;;;9.00;9.00;;;;;21.96;48.77;100598.81;5015356;28;45619;-49
2021/09/19 01:27:03;;;;;;;;;12.50;12.50;;;;;21.95;48.40;100597.09;5019511;28;46262;-49
2021/09/19 01:29:29;;;;;;;;;10.75;8.75;;;;;21.94;48.53;100594.50;5004676;28;45296;-51
2021/09/19 01:31:54;;;;;;;;;10.25;9.75;;;;;21.92;48.38;100594.59;5003524;28;45299;-50
2021/09/19 01:34:20;;;;;;;;;9.50;9.00;;;;;21.89;48.44;100586.78;5017534;28;45330;-48
2021/09/19 01:36:45;;;;;;;;;8.25;7.25;;;;;21.90;48.59;100592.03;5014201;28;45316;-50
2021/09/19 01:39:11;;;;;;;;;10.25;10.25;;;;;21.88;48.64;100593.09;5002809;28;45222;-51
2021/09/19 01:41:37;;;;;;;;;11.75;10.00;;;;;21.87;48.37;100591.34;5007739;28;45194;-51
2021/09/19 01:44:04;;;;;;;;;12.50;10.25;;;;;21.86;48.86;100601.22;5003414;28;45479;-50
2021/09/19 01:46:30;;;;;;;;;13.00;10.25;;;;;21.85;48.50;100587.94;5012970;28;46538;-50
2021/09/19 01:48:55;;;;;;;;;9.25;8.25;;;;;21.84;48.54;100589.75;5006433;28;45328;-50
2021/09/19 01:51:21;;;;;;;;;11.75;11.75;;;;;21.82;48.57;100593.47;5003270;28;45500;-47
2021/09/19 01:53:48;;;;;;;;;12.00;9.50;;;;;21.82;48.74;100596.16;5002636;28;45279;-50
2021/09/19 01:56:13;;;;;;;;;11.00;10.00;;;;;21.81;48.59;100583.72;5002908;28;46577;-48
2021/09/19 01:58:46;;;;;;;;;9.50;9.50;;;;;21.80;48.66;100590.03;5002480;28;45281;-47
2021/09/19 02:01:13;;;;;;;;;13.50;10.25;;;;;21.77;48.34;100588.41;5024703;28;45343;-48
2021/09/19 02:03:39;;;;;;;;;15.25;13.00;;;;;21.77;48.64;100583.06;5020064;28;45547;-48
2021/09/19 02:06:06;;;;;;;;;11.00;9.00;;;;;21.74;48.79;100575.25;5012745;28;47257;-48
2021/09/19 02:08:35;;;;;;;;;11.50;10.25;;;;;21.74;49.02;100586.78;5017352;28;45417;-49
2021/09/19 02:11:06;;;;;;;;;9.50;9.00;;;;;21.71;49.00;100584.31;5002912;28;45390;-50
2021/09/19 02:13:32;;;;;;;;;11.50;11.00;;;;;21.67;48.80;100580.13;5002405;28;45610;-50
2021/09/19 02:15:58;;;;;;;;;11.75;11.00;;;;;21.63;49.06;100564.38;5013900;28;45350;-50
2021/09/19 02:18:24;;;;;;;;;12.00;12.00;;;;;21.65;49.10;100574.03;5016406;28;45362;-50
2021/09/19 02:20:49;;;;;;;;;12.00;12.00;;;;;21.66;48.35;100582.88;5002788;28;45364;-49
2021/09/19 02:23:15;;;;;;;;;12.00;11.75;;;;;21.64;48.66;100569.63;5002212;28;45704;-50
2021/09/19 02:25:40;;;;;;;;;12.75;11.25;;;;;21.62;48.66;100566.16;5018478;28;46351;-48
2021/09/19 02:28:05;;;;;;;;;12.50;11.50;;;;;21.60;48.96;100573.44;5003211;28;45329;-49
2021/09/19 02:30:31;;;;;;;;;11.75;10.50;;;;;21.57;48.43;100569.16;5002500;28;45522;-47
2021/09/19 02:32:56;;;;;;;;;11.25;10.75;;;;;21.55;48.69;100565.72;5002376;28;45637;-48
2021/09/19 02:35:21;;;;;;;;;12.25;11.25;;;;;21.54;48.61;100568.47;5002327;28;46248;-46
2021/09/19 02:37:47;;;;;;;;;13.25;13.25;;;;;21.51;48.50;100563.28;5002016;28;45318;-47
2021/09/19 02:40:14;;;;;;;;;10.25;9.25;;;;;21.49;48.59;100563.38;5001414;28;45394;-51
2021/09/19 02:42:40;;;;;;;;;12.00;10.50;;;;;21.47;48.60;100561.78;5001875;28;45943;-51
2021/09/19 02:45:07;;;;;;;;;12.50;11.75;;;;;21.46;48.80;100557.38;5011252;28;45377;-48
2021/09/19 02:47:32;;;;;;;;;11.50;11.50;;;;;21.45;48.23;100561.03;5016970;28;45163;-50
2021/09/19 02:49:58;;;;;;;;;12.25;11.00;;;;;21.42;48.73;100557.59;5002431;28;45226;-48
2021/09/19 02:52:23;;;;;;;;;9.50;9.50;;;;;21.41;48.35;100558.53;5015748;28;45532;-52
2021/09/19 02:54:48;;;;;;;;;11.25;10.50;;;;;21.37;48.90;100553.47;5013255;28;45345;-51
2021/09/19 02:57:14;;;;;;;;;11.25;11.25;;;;;21.34;48.69;100543.81;5003398;28;45455;-49
2021/09/19 02:59:39;;;;;;;;;10.25;10.25;;;;;21.37;48.91;100557.00;5002222;28;45490;-51
2021/09/19 03:02:06;;;;;;;;;12.75;12.75;;;;;21.34;48.80;100549.16;5001839;28;45455;-51
2021/09/19 03:04:32;;;;;;;;;11.50;11.50;;;;;21.36;48.48;100555.28;5001870;28;46172;-49
2021/09/19 03:06:57;;;;;;;;;11.25;10.25;;;;;21.36;48.21;100551.78;5001699;28;45301;-49
2021/09/19 03:09:22;;;;;;;;;13.00;11.00;;;;;21.34;48.19;100557.19;5001823;28;45444;-48
2021/09/19 03:11:48;;;;;;;;;9.75;9.50;;;;;21.31;48.90;100545.84;5001738;28;45328;-48
2021/09/19 03:14:13;;;;;;;;;11.75;11.50;;;;;21.33;48.25;100551.94;5001851;28;45234;-48
2021/09/19 03:16:39;;;;;;;;;12.50;12.00;;;;;21.32;48.36;100553.78;5013633;28;45861;-48
2021/09/19 03:19:04;;;;;;;;;14.00;10.25;;;;;21.31;48.25;100552.06;5013755;28;45789;-49
2021/09/19 03:21:29;;;;;;;;;11.00;10.50;;;;;21.31;48.23;100549.38;5003048;28;45248;-47
2021/09/19 03:23:55;;;;;;;;;11.50;10.50;;;;;21.30;48.67;100544.97;5002766;28;46892;-50
2021/09/19 03:26:20;;;;;;;;;14.25;12.50;;;;;21.29;48.95;100542.41;5039803;28;45198;-47
2021/09/19 03:28:45;;;;;;;;;11.25;10.75;;;;;21.26;48.76;100532.78;5028804;28;45248;-48
2021/09/19 03:31:11;;;;;;;;;11.25;9.50;;;;;21.27;48.27;100550.53;5003543;28;45228;-50
2021/09/19 03:33:36;;;;;;;;;10.75;10.75;;;;;21.26;48.40;100546.13;5001408;28;45298;-49
2021/09/19 03:36:02;;;;;;;;;13.75;11.00;;;;;21.24;48.85;100534.69;5001521;28;45242;-50
2021/09/19 03:38:28;;;;;;;;;11.00;10.75;;;;;21.24;48.13;100534.69;5009933;28;45184;-50
2021/09/19 03:40:53;;;;;;;;;13.25;11.00;;;;;21.22;48.38;100533.91;5024129;28;45538;-46
2021/09/19 03:43:19;;;;;;;;;13.50;11.00;;;;;21.21;48.42;100537.56;5031242;28;46201;-48
2021/09/19 03:45:44;;;;;;;;;12.50;11.25;;;;;21.20;48.86;100539.34;5019023;28;45332;-46
2021/09/19 03:48:09;;;;;;;;;12.75;11.75;;;;;21.19;48.87;100547.47;5011663;28;45258;-47
2021/09/19 03:50:36;;;;;;;;;10.50;10.50;;;;;21.17;48.79;100547.56;5033199;28;45331;-49
2021/09/19 03:53:01;;;;;;;;;12.00;12.00;;;;;21.15;48.49;100551.28;5029766;28;46289;-50
2021/09/19 03:55:27;;;;;;;;;11.75;11.00;;;;;21.13;48.31;100547.84;5004387;28;45246;-49
2021/09/19 03:57:53;;;;;;;;;12.00;10.75;;;;;21.11;48.41;100548.78;5001050;28;45389;-50
2021/09/19 04:00:19;;;;;;;;;9.25;9.00;;;;;21.10;48.51;100551.56;5000745;28;45310;-46
2021/09/19 04:02:45;;;;;;;;;14.75;13.00;;;;;21.08;48.48;100558.81;5016107;28;47163;-47
2021/09/19 04:05:11;;;;;;;;;15.00;14.00;;;;;21.06;48.54;100548.22;5015988;28;45247;-49
2021/09/19 04:07:38;;;;;;;;;15.25;14.00;;;;;21.04;48.51;100547.47;5011202;28;45236;-52
2021/09/19 04:10:05;;;;;;;;;11.50;11.50;;;;;21.03;48.76;100553.75;5003509;28;45522;-47
2021/09/19 04:12:30;;;;;;;;;14.25;12.25;;;;;21.00;48.59;100556.59;5000676;28;45325;-50
2021/09/19 04:14:56;;;;;;;;;12.25;12.25;;;;;20.99;48.37;100554.88;4999372;28;45391;-49
2021/09/19 04:17:21;;;;;;;;;12.25;11.50;;;;;20.96;48.85;100548.88;4999783;28;45320;-51
2021/09/19 04:19:46;;;;;;;;;13.75;12.50;;;;;20.94;48.30;100548.97;5000630;28;45496;-50
2021/09/19 04:22:12;;;;;;;;;14.00;13.75;;;;;20.91;48.65;100555.34;5000613;28;46142;-50
2021/09/19 04:24:37;;;;;;;;;12.50;12.50;;;;;20.91;48.50;100559.84;5007612;28;45450;-47
2021/09/19 04:27:03;;;;;;;;;14.75;12.50;;;;;20.86;48.84;100560.09;5031488;28;45243;-51
2021/09/19 04:29:28;;;;;;;;;11.75;10.75;;;;;20.84;48.23;100569.16;5018322;28;45445;-49
2021/09/19 04:31:54;;;;;;;;;15.75;15.75;;;;;20.81;48.98;100572.03;5000478;28;46460;-46
2021/09/19 04:34:19;;;;;;;;;14.75;14.75;;;;;20.77;48.96;100566.00;5000471;28;45233;-48
2021/09/19 04:36:45;;;;;;;;;13.75;12.50;;;;;20.74;48.87;100569.72;5000741;28;45511;-51
2021/09/19 04:39:10;;;;;;;;;15.50;14.00;;;;;20.73;49.08;100564.50;5000369;28;45261;-49
2021/09/19 04:41:35;;;;;;;;;14.50;13.25;;;;;20.69;48.82;100560.22;5000386;28;45278;-50
2021/09/19 04:44:01;;;;;;;;;13.25;12.25;;;;;20.66;48.44;100566.59;5000546;28;45210;-51
2021/09/19 04:46:26;;;;;;;;;14.25;14.25;;;;;20.63;48.74;100562.31;5020349;28;45184;-47
2021/09/19 04:48:54;;;;;;;;;14.00;11.50;;;;;20.60;49.16;100561.63;5004699;28;45354;-51
2021/09/19 04:51:20;;;;;;;;;14.00;13.50;;;;;20.57;49.03;100567.16;5000176;28;47285;-48
2021/09/19 04:53:45;;;;;;;;;15.00;15.00;;;;;20.53;48.42;100563.81;4999903;28;45425;-48
2021/09/19 04:56:10;;;;;;;;;14.50;13.00;;;;;20.50;48.91;100560.47;5000473;28;45480;-47
2021/09/19 04:58:36;;;;;;;;;15.75;14.50;;;;;20.45;49.06;100553.59;5000053;28;45437;-46
2021/09/19 05:01:02;;;;;;;;;15.25;14.00;;;;;20.46;49.12;100563.31;5000117;28;45357;-48
2021/09/19 05:03:27;;;;;;;;;14.75;14.00;;;;;20.42;49.16;100560.91;5005208;28;45323;-48
2021/09/19 05:05:52;;;;;;;;;13.00;11.50;;;;;20.40;48.67;100563.69;5030490;28;45439;-50
2021/09/19 05:08:18;;;;;;;;;16.25;13.25;;;;;20.39;48.63;100567.28;5001969;28;45445;-52
2021/09/19 05:10:43;;;;;;;;;15.00;15.00;;;;;20.37;48.48;100566.50;5000123;28;45253;-52
2021/09/19 05:13:09;;;;;;;;;18.00;16.25;;;;;20.34;49.21;100561.38;4999975;28;45250;-50
2021/09/19 05:15:34;;;;;;;;;13.25;11.75;;;;;20.33;48.60;100564.13;5000238;28;45235;-50
2021/09/19 05:17:59;;;;;;;;;14.50;13.50;;;;;20.30;49.21;100554.47;4999999;28;45307;-48
2021/09/19 05:20:25;;;;;;;;;11.00;11.00;;;;;20.27;49.00;100560.84;5000003;28;45353;-47
2021/09/19 05:22:50;;;;;;;;;13.50;12.50;;;;;20.25;49.27;100564.53;4999714;28;45251;-51
2021/09/19 05:25:15;;;;;;;;;12.75;11.50;;;;;20.24;48.67;100576.19;5012478;28;45432;-47
2021/09/19 05:27:41;;;;;;;;;14.00;14.00;;;;;20.19;48.73;100573.78;5002679;28;45238;-50
2021/09/19 05:30:07;;;;;;;;;17.00;14.25;;;;;20.20;48.72;100577.28;4999667;28;45316;-47
2021/09/19 05:32:32;;;;;;;;;14.75;13.50;;;;;20.19;49.19;100583.56;5001104;28;45248;-51
2021/09/19 05:34:57;;;;;;;;;11.75;11.75;;;;;20.15;49.37;100582.91;5032607;28;45213;-51
2021/09/19 05:37:23;;;;;;;;;14.25;13.25;;;;;20.14;49.20;100590.03;5005706;28;45240;-48
2021/09/19 05:39:48;;;;;;;;;14.25;13.50;;;;;20.11;48.79;100587.56;5005488;28;47097;-48
2021/09/19 05:42:13;;;;;;;;;16.00;14.50;;;;;20.02;49.32;100580.06;5017298;28;45582;-51
2021/09/19 05:44:39;;;;;;;;;15.50;13.25;;;;;20.07;49.28;100586.00;5005236;28;45500;-52
2021/09/19 05:47:04;;;;;;;;;15.25;14.50;;;;;20.06;49.29;100597.63;5019440;28;45455;-51
2021/09/19 05:49:30;;;;;;;;;15.25;13.50;;;;;20.04;49.38;100591.50;5019407;28;45372;-49
2021/09/19 05:51:55;;;;;;;;;11.25;11.25;;;;;20.03;49.18;100588.94;5019247;28;45419;-50
2021/09/19 05:54:20;;;;;;;;;13.00;13.00;;;;;20.00;48.95;100595.31;5011992;28;45378;-51
2021/09/19 05:56:46;;;;;;;;;13.25;12.25;;;;;19.98;48.81;100599.84;4999218;28;45423;-51
2021/09/19 05:59:11;;;;;;;;;11.50;11.50;;;;;19.97;48.88;100603.47;5007083;28;45333;-48
2021/09/19 06:01:36;;;;;;;;;16.00;14.75;;;;;19.96;49.54;100607.06;5019075;28;45404;-48
2021/09/19 06:04:02;;;;;;;;;14.50;14.50;;;;;19.94;48.98;100611.66;5019455;28;45480;-49
2021/09/19 06:06:27;;;;;;;;;23.25;21.00;;;;;19.93;49.40;100601.91;5019113;28;45378;-49
2021/09/19 06:08:53;;;;;;;;;16.75;16.50;;;;;19.92;48.92;100605.53;5026570;28;46561;-49
2021/09/19 06:11:18;;;;;;;;;34.50;29.75;;;;;19.90;49.14;100604.75;5023439;28;45390;-50
2021/09/19 06:13:43;;;;;;;;;14.25;14.25;;;;;19.89;49.46;100614.56;4999677;28;45389;-48
2021/09/19 06:16:09;;;;;;;;;17.00;14.00;;;;;19.89;49.17;100609.22;5015743;28;45830;-50
2021/09/19 06:18:34;;;;;;;;;13.00;11.25;;;;;19.87;49.34;100621.78;5014957;28;45250;-50
2021/09/19 06:21:00;;;;;;;;;12.00;12.00;;;;;19.88;48.99;100626.16;5002395;28;45209;-49
2021/09/19 06:23:26;;;;;;;;;12.50;12.50;;;;;19.88;49.09;100625.31;5002487;28;45266;-51
2021/09/19 06:25:52;;;;;;;;;14.75;13.75;;;;;19.87;49.44;100628.91;5018887;28;45265;-52
2021/09/19 06:28:18;;;;;;;;;14.50;13.50;;;;;19.88;49.10;100628.81;5002432;28;46979;-52
2021/09/19 06:30:43;;;;;;;;;16.25;15.00;;;;;19.89;49.17;100624.38;5002185;28;45523;-50
2021/09/19 06:33:09;;;;;;;;;15.25;14.00;;;;;19.90;49.67;100626.06;5002495;28;45467;-50
2021/09/19 06:35:34;;;;;;;;;14.25;14.25;;;;;19.91;49.63;100633.13;5002311;28;45331;-54
2021/09/19 06:38:00;;;;;;;;;15.25;12.50;;;;;19.92;49.34;100632.19;5001922;28;46182;-50
2021/09/19 06:40:25;;;;;;;;;15.25;14.25;;;;;19.92;49.76;100630.41;5002558;28;45262;-53
2021/09/19 06:42:50;;;;;;;;;16.25;14.00;;;;;19.94;49.17;100630.31;5002211;28;45384;-48
2021/09/19 06:45:16;;;;;;;;;14.75;13.25;;;;;19.97;49.55;100631.00;5002392;28;45596;-50
2021/09/19 06:47:42;;;;;;;;;12.50;12.50;;;;;20.00;49.15;100637.09;5021140;28;46724;-51
2021/09/19 06:50:10;;;;;;;;;13.00;12.25;;;;;20.00;49.27;100635.31;5022043;28;45462;-53
2021/09/19 06:52:35;;;;;;;;;14.00;12.50;;;;;20.04;49.54;100628.84;5021722;28;45286;-51
2021/09/19 06:55:01;;;;;;;;;15.50;14.50;;;;;20.07;49.30;100638.47;5021952;28;45226;-51
2021/09/19 06:57:26;;;;;;;;;14.25;14.00;;;;;20.08;49.68;100634.88;5021397;28;46163;-52
2021/09/19 06:59:52;;;;;;;;;13.50;13.50;;;;;20.10;49.18;100638.28;5021834;28;45288;-50
2021/09/19 07:02:17;;;;;;;;;16.50;14.50;;;;;20.11;49.53;100656.91;5022175;28;45231;-51
2021/09/19 07:04:43;;;;;;;;;14.75;13.75;;;;;20.16;49.28;100651.28;5021421;28;45614;-56
2021/09/19 07:07:08;;;;;;;;;15.00;15.00;;;;;20.18;49.73;100649.41;5021534;28;46268;-53
2021/09/19 07:09:34;;;;;;;;;16.75;15.75;;;;;20.20;49.28;100643.97;5021411;28;45295;-47
2021/09/19 07:11:59;;;;;;;;;14.00;14.00;;;;;20.20;49.01;100639.53;5003871;28;45368;-51
2021/09/19 07:14:25;;;;;;;;;12.00;12.00;;;;;20.23;49.27;100643.84;5021643;28;45313;-50
2021/09/19 07:16:51;;;;;;;;;16.75;14.50;;;;;20.25;49.59;100642.78;5020248;28;46029;-52
2021/09/19 07:19:16;;;;;;;;;16.50;16.50;;;;;20.27;49.41;100648.88;5021595;28;45355;-52
2021/09/19 07:21:41;;;;;;;;;15.00;15.00;;;;;20.30;49.59;100651.41;5021610;28;45301;-52
2021/09/19 07:24:07;;;;;;;;;15.00;14.00;;;;;20.34;49.13;100649.41;5021028;28;45408;-55
2021/09/19 07:26:32;;;;;;;;;14.25;13.25;;;;;20.36;49.17;100660.84;5020786;28;45973;-53
2021/09/19 07:28:58;;;;;;;;;14.25;10.75;;;;;20.40;48.99;100661.53;5018796;28;45345;-53
2021/09/19 07:31:24;;;;;;;;;13.00;12.25;;;;;20.43;49.47;100669.38;5001573;28;45352;-54
2021/09/19 07:33:51;;;;;;;;;14.00;12.50;;;;;20.46;49.39;100669.19;5001459;28;45341;-53
2021/09/19 07:36:16;;;;;;;;;13.00;11.25;;;;;20.49;49.52;100676.16;5001396;28;45231;-53
2021/09/19 07:38:42;;;;;;;;;15.00;13.25;;;;;20.51;48.99;100668.94;5001411;28;45297;-53
2021/09/19 07:41:08;;;;;;;;;15.25;13.25;;;;;20.54;49.00;100671.44;5001085;28;45455;-52
2021/09/19 07:43:33;;;;;;;;;17.50;14.00;;;;;20.57;49.43;100674.78;5000682;28;45525;-50
2021/09/19 07:45:59;;;;;;;;;12.50;11.50;;;;;20.57;49.39;100677.44;5017353;28;46256;-50
2021/09/19 07:48:25;;;;;;;;;14.75;13.00;;;;;20.61;49.08;100686.16;5033034;28;45272;-52
2021/09/19 07:50:51;;;;;;;;;13.75;11.25;;;;;20.63;48.90;100689.59;5016444;28;45238;-47
2021/09/19 07:53:16;;;;;;;;;13.25;13.25;;;;;20.66;49.46;100696.56;4999254;28;45604;-48
2021/09/19 07:55:42;;;;;;;;;12.25;12.25;;;;;20.70;49.52;100692.78;5000657;28;46997;-49
2021/09/19 07:58:07;;;;;;;;;13.00;12.00;;;;;20.72;49.04;100694.44;5001055;28;45534;-48
2021/09/19 08:00:33;;;;;;;;;12.25;12.00;;;;;20.75;48.94;100696.06;5000952;28;45359;-51
2021/09/19 08:02:58;;;;;;;;;12.50;12.50;;;;;20.77;48.74;100700.38;5001164;28;45407;-50
2021/09/19 08:05:25;;;;;;;;;15.50;13.50;;;;;20.81;49.20;100698.38;5000684;28;46202;-47
2021/09/19 08:07:51;;;;;;;;;12.75;11.25;;;;;20.85;49.15;100696.41;5000929;28;45257;-52
2021/09/19 08:10:17;;;;;;;;;12.25;12.25;;;;;20.89;49.11;100704.16;5013414;28;45267;-50
2021/09/19 08:12:46;;;;;;;;;12.00;10.75;;;;;20.90;49.01;100708.53;5012228;28;45440;-49
2021/09/19 08:15:12;;;;;;;;;15.25;14.25;;;;;20.93;49.06;100713.69;5007326;28;46349;-50
2021/09/19 08:17:38;;;;;;;;;13.50;12.25;;;;;20.97;48.58;100710.84;5007379;28;45274;-53
2021/09/19 08:20:04;;;;;;;;;14.00;12.00;;;;;20.98;48.70;100716.13;5000996;28;45506;-51
2021/09/19 08:22:29;;;;;;;;;11.50;11.00;;;;;20.99;49.34;100712.47;5000414;28;45222;-52
2021/09/19 08:24:54;;;;;;;;;12.75;12.75;;;;;21.03;49.01;100716.69;5010099;28;45365;-52
2021/09/19 08:27:19;;;;;;;;;12.50;12.50;;;;;21.07;48.79;100720.91;5006974;28;45321;-51
2021/09/19 08:29:45;;;;;;;;;15.50;15.50;;;;;21.09;49.10;100732.38;5000628;28;45147;-50
2021/09/19 08:32:10;;;;;;;;;13.25;12.75;;;;;21.16;49.19;100738.22;5000706;28;45244;-49
2021/09/19 08:34:38;;;;;;;;;13.25;12.00;;;;;21.21;49.00;100737.94;5000330;28;46056;-50
2021/09/19 08:37:04;;;;;;;;;12.75;12.50;;;;;21.26;48.66;100735.84;5000191;28;45313;-48
2021/09/19 08:39:30;;;;;;;;;16.00;14.50;;;;;21.30;48.49;100729.38;4999594;28;45642;-53
2021/09/19 08:41:55;;;;;;;;;13.25;13.25;;;;;21.37;48.52;100727.19;5000312;28;45495;-51
2021/09/19 08:44:20;;;;;;;;;11.50;10.50;;;;;21.43;48.74;100727.69;4998525;28;45884;-52
2021/09/19 08:46:47;;;;;;;;;17.25;17.25;;;;;21.50;48.66;100732.69;5015694;28;45411;-50
2021/09/19 08:49:14;;;;;;;;;19.75;15.25;;;;;21.54;48.94;100735.06;5015271;28;45399;-54
2021/09/19 08:51:39;;;;;;;;;15.75;15.50;;;;;21.62;48.81;100731.94;4999783;28;45512;-53
2021/09/19 08:54:05;;;;;;;;;16.25;15.25;;;;;21.67;48.91;100743.25;4999730;28;46285;-55
2021/09/19 08:56:31;;;;;;;;;14.00;14.00;;;;;21.73;48.96;100747.34;5000300;28;45236;-55
2021/09/19 08:58:56;;;;;;;;;17.50;14.25;;;;;21.76;48.72;100747.16;4999976;28;45644;-53
2021/09/19 09:01:22;;;;;;;;;16.50;15.50;;;;;21.81;48.44;100746.88;5000043;28;45614;-52
2021/09/19 09:03:48;;;;;;;;;15.00;13.25;;;;;21.83;48.37;100759.19;4999760;28;45174;-52
2021/09/19 09:06:17;;;;;;;;;18.50;18.00;;;;;21.87;48.37;100757.19;5000424;28;45593;-53
2021/09/19 09:08:44;;;;;;;;;21.00;16.75;;;;;21.89;48.42;100756.13;4999721;28;45340;-51
2021/09/19 09:11:11;;;;;;;;;17.50;17.25;;;;;21.94;48.37;100760.34;5000315;28;45322;-49
2021/09/19 09:13:39;;;;;;;;;16.25;15.50;;;;;21.99;48.46;100759.13;4999725;28;45250;-51
2021/09/19 09:16:17;;;;;;;;;15.25;14.25;;;;;22.01;48.69;100757.22;5000148;28;45445;-50
2021/09/19 09:18:52;;;;;;;;;14.00;14.00;;;;;22.04;48.54;100757.00;5007034;28;45369;-52
2021/09/19 09:21:23;;;;;;;;;16.50;14.50;;;;;22.07;48.41;100762.19;5016704;28;45317;-53
2021/09/19 09:23:50;;;;;;;;;18.75;17.25;;;;;22.10;48.38;100762.94;5000421;28;46229;-52
2021/09/19 09:26:26;;;;;;;;;15.75;14.50;;;;;22.14;48.31;100767.13;5016131;28;45362;-58
2021/09/19 09:28:57;;;;;;;;;18.00;16.00;;;;;22.20;48.31;100772.09;5018976;28;45346;-55
2021/09/19 09:31:33;;;;;;;;;21.50;18.75;;;;;22.23;48.12;100777.28;4999628;28;45570;-57
2021/09/19 09:34:10;;;;;;;;;16.75;14.75;;;;;22.29;48.60;100774.22;5000438;28;45343;-57
2021/09/19 09:36:42;;;;;;;;;19.50;18.75;;;;;22.34;48.15;100771.22;5007373;28;45430;-57
2021/09/19 09:39:25;;;;;;;;;18.75;16.50;;;;;22.39;48.17;100777.22;5004403;28;45300;-58
2021/09/19 09:41:54;;;;;;;;;19.50;16.75;;;;;22.44;48.00;100775.09;4999424;28;45262;-55
2021/09/19 09:44:34;;;;;;;;;16.25;16.00;;;;;22.51;48.18;100783.59;5003726;28;45499;-58
2021/09/19 09:47:02;;;;;;;;;19.50;17.50;;;;;22.57;48.10;100788.53;5032187;28;45387;-57
2021/09/19 09:49:40;;;;;;;;;15.50;13.75;;;;;22.60;48.27;100785.66;5014019;28;45238;-57
2021/09/19 09:52:26;;;;;;;;;15.00;14.50;;;;;22.66;47.92;100787.09;5002673;28;45424;-57
2021/09/19 09:54:58;;;;;;;;;15.75;15.50;;;;;22.70;47.84;100785.94;5002410;28;46066;-56
2021/09/19 09:57:35;;;;;;;;;17.25;15.25;;;;;22.77;47.96;100794.44;5002597;28;45535;-57
2021/09/19 10:00:03;;;;;;;;;15.00;15.00;;;;;22.81;47.94;100799.50;5002868;28;45396;-57
2021/09/19 10:02:30;;;;;;;;;12.00;11.00;;;;;22.84;47.56;100807.34;5002991;28;45253;-57
2021/09/19 10:04:56;;;;;;;;;14.25;13.25;;;;;22.86;47.76;100808.09;5002056;28;46163;-57
2021/09/19 10:07:22;;;;;;;;;16.25;16.25;;;;;22.90;47.35;100806.06;5008790;28;45391;-57
2021/09/19 10:09:47;;;;;;;;;17.75;16.50;;;;;22.94;47.74;100804.06;5011988;28;45444;-57
2021/09/19 10:12:13;;;;;;;;;18.75;17.25;;;;;22.99;47.43;100799.25;5010626;28;45337;-56
2021/09/19 10:14:38;;;;;;;;;18.50;17.00;;;;;23.04;47.51;100803.38;5010571;28;46146;-56
2021/09/19 10:17:04;;;;;;;;;16.75;15.00;;;;;23.07;47.46;100802.31;5011976;28;45443;-55
2021/09/19 10:19:30;;;;;;;;;15.75;15.25;;;;;23.11;47.33;100803.81;5010251;28;45301;-54
2021/09/19 10:21:58;;;;;;;;;17.00;15.25;;;;;23.15;47.34;100796.44;5010953;28;45368;-52
2021/09/19 10:24:26;;;;;;;;;14.25;14.25;;;;;23.18;47.50;100804.28;5016559;28;45524;-53
2021/09/19 10:26:55;;;;;;;;;17.00;15.25;;;;;23.23;47.36;100799.47;5012036;28;45444;-54
2021/09/19 10:29:27;;;;;;;;;17.00;16.00;;;;;23.33;47.41;100797.03;5012758;28;45466;-53
2021/09/19 10:31:56;;;;;;;;;14.50;14.50;;;;;23.44;47.34;100794.50;5011663;28;45226;-53
2021/09/19 10:34:27;;;;;;;;;13.50;13.50;;;;;23.59;47.12;100792.59;5010288;28;46327;-53
2021/09/19 10:36:55;;;;;;;;;18.75;16.50;;;;;23.74;47.33;100792.53;5011802;28;45478;-54
2021/09/19 10:39:41;;;;;;;;;17.00;16.00;;;;;23.88;47.45;100789.72;5015188;28;45412;-54
2021/09/19 10:42:25;;;;;;;;;17.25;15.75;;;;;24.05;47.32;100799.31;5034951;28;45317;-53
2021/09/19 10:44:50;;;;;;;;;18.75;15.25;;;;;24.24;47.38;100788.13;5007537;28;47005;-55
2021/09/19 10:47:24;;;;;;;;;16.00;15.00;;;;;24.41;47.08;100794.97;5010847;28;45487;-54
2021/09/19 10:49:50;;;;;;;;;17.25;15.25;;;;;24.58;46.83;100790.22;5010157;28;45412;-52
2021/09/19 10:52:18;;;;;;;;;16.75;15.00;;;;;24.77;46.86;100789.78;5011080;28;45504;-54
2021/09/19 10:54:47;;;;;;;;;16.25;16.25;;;;;24.95;46.87;100792.94;5019085;28;45428;-52
2021/09/19 10:57:19;;;;;;;;;29.75;27.00;;;;;25.12;46.82;100787.16;5034726;28;45297;-54
2021/09/19 11:00:17;;;;;;;;;13.50;12.00;;;;;25.34;46.48;100798.13;5010487;28;45356;-51
2021/09/19 11:03:00;;;;;;;;;16.25;15.25;;;;;25.56;46.33;100791.97;5001662;28;45408;-59
2021/09/19 11:05:36;;;;;;;;;16.50;16.50;;;;;25.78;46.61;100793.88;5018964;28;45182;-63
2021/09/19 11:08:07;;;;;;;;;21.00;19.50;;;;;26.03;47.00;100803.56;5005103;28;45303;-61
2021/09/19 11:10:53;;;;;;;;;17.25;16.00;;;;;26.33;46.41;100804.00;5008624;28;45431;-63